Arvada, WY

5:18 PM MDT on July 22, 2014 (GMT -0600)
Gillette-Campbell County (KGCC) Elev 4364 ft | 44.34 °N, 105.54 °W | Change Station

Current weather conditions updated 25 minutes ago

Clear
Clear
87 °F
Feels Like 87 °F
N
16
Wind Variable Wind from North

Tomorrow is forecast to be Much Warmer than today.

Today
High -- | Low -- °F
--% Chance of Precip.
Yesterday
High -- | Low -- °F
Precip. -- in
5:39 AM 8:41 PM
Waning Crescent, 14% visible
Pressure 30.03 in
Visibility 7.0 miles
Clouds Few 11000 ft
Dew Point 48 °F
Humidity 26%
Rainfall 0.00 in
Snow Depth Not available.
UV 5 out of 12
Pollen 5.30 out of 12
Air Quality Not available.
Flu Activity Not available.
METAR KGCC 222253Z AUTO 36014KT 7SM FEW110 31/09 A3017 RMK AO2 PK WND 34026/2235 WSHFT 2229 LTG DSNT NE AND E TSB15E46 SLP167 T03060089

More Conditions Fewer Conditions

Pressure 30.03 in
Visibility 7.0 miles
Clouds Few 11000 ft
Dew Point 48 °F
Humidity 26%
Rainfall 0.00 in
Snow Depth Not available.
UV 5 out of 12
Pollen 5.30 out of 12
Air Quality Not available.
Flu Activity Not available.
METAR KGCC 222253Z AUTO 36014KT 7SM FEW110 31/09 A3017 RMK AO2 PK WND 34026/2235 WSHFT 2229 LTG DSNT NE AND E TSB15E46 SLP167 T03060089

More Conditions Fewer Conditions

10-Day Weather Forecast

Almanac

Astronomy

Jul. 22, 2014 Rise Set
Actual Time 5:39 AM MDT 8:41 PM MDT
Civil Twilight 5:05 AM MDT 9:15 PM MDT
Nautical Twilight 4:20 AM MDT 10:00 PM MDT
Astronomical Twilight 3:27 AM MDT 10:53 PM MDT
Moon 2:16 AM MDT 5:20 PM MDT
Length of Visible Light 16h 10m
Length of Day
15h 01m
Tomorrow will be 2m 0s shorter.
Waning Crescent, 14% of the Moon is Illuminated
Today
Waning Crescent
Jul 26
New
Aug 3
First Quarter
Aug 10
Full
Aug 17
Last Quarter

Today's Extremes

State Highs State Lows

Community

WunderPhotos

Upload Photos

1,736,391 photos uploaded!

Nearby

Snow Depth

Station Depth Elevation
Burroughs Creek 0 in 8750 ft
Gunsight Pass 1 in 9820 ft
Big Sandy Opening 0 in 9080 ft
Kendall R.S. 0 in 7740 ft
Lewis Lake Divide 0 in 7850 ft

Earthquake Activity

City Distance Mag. Time & Date
No recent earthquake activity has been reported nearby.
Minimum magnitude displayed is 2.5.

Coastal Water Temperatures

Place Temperature
No Stations Reporting

Nearby Weather Stations

Station Location Temp. Heat Index Dew Point Humidity Wind Precip. Elev Updated Type
RAWS ECHETA WY, Gillette, WY 93 °F 89 °F 37 °F 14% SSW  at  15 mph 0.00 in / hr 4396 ft 3:51 PM MDT MADIS

Show More Stations Show Fewer Stations